Corcovado, Argentina
Current Conditions -  °F | °C
As of 8:00 PM on Monday 24 Nov 2014 (Local Time) from SCAP Reporting Station
Few Clouds Few Clouds  
Wind Chill: 54°   Ceiling: Unl
Heat Index: 54°   Visibility: NA
Dew Point: 39°   Wind: 10mph
Humidity: 58%   Direction: 210°SSW
Pressure: 30.24"   Gusts: NA
Location:  43.46°S, 71.09°W
Report Text: SCAP 242300Z AUTO 21009KT 180V260 //// // FEW048 12/04 Q1024
Loading
Personal Weather Stations






























Interactive Weather Map New forecast layout! Learn more

10-Day Weather Forecast

Advertisements
Track Severe Weather on mobile